Time;durP1;ratioP1;P1;durP2;ratioP2;P2;SDS_P1;SDS_P2;PMS_P1;PMS_P2;Temp;Humidity;BMP_temperature;BMP_pressure;BME280_temperature;BME280_humidity;BME280_pressure;Samples;Min_cycle;Max_cycle;Signal;HPM_P1;HPM_P2
2022/02/14 00:01:02;;;;;;;2.38;0.75;;;;;;;7.98;79.43;97605.03;4984450;28;20054;-59
2022/02/14 00:03:30;;;;;;;4.00;0.50;;;;;;;7.94;79.84;97604.25;4988700;28;20042;-60
2022/02/14 00:05:57;;;;;;;2.10;0.63;;;;;;;7.94;79.33;97609.41;4983896;28;20511;-60
2022/02/14 00:08:24;;;;;;;1.95;0.70;;;;;;;7.92;80.18;97611.22;4989215;28;20050;-59
2022/02/14 00:10:51;;;;;;;2.58;0.68;;;;;;;7.91;79.72;97604.34;4986671;28;20560;-60
2022/02/14 00:13:18;;;;;;;5.00;0.90;;;;;;;7.90;80.69;97607.81;4990044;28;20046;-60
2022/02/14 00:15:46;;;;;;;2.40;0.77;;;;;;;7.89;80.18;97611.31;4987690;28;20452;-60
2022/02/14 00:18:12;;;;;;;2.13;0.93;;;;;;;7.87;79.70;97618.22;4987689;28;20042;-60
2022/02/14 00:20:39;;;;;;;1.80;0.70;;;;;;;7.87;80.08;97617.41;4985004;28;20116;-60
2022/02/14 00:23:05;;;;;;;5.70;1.00;;;;;;;7.85;79.33;97622.59;4984017;28;20545;-59
2022/02/14 00:25:32;;;;;;;3.15;1.25;;;;;;;7.84;80.20;97629.47;4985101;28;20042;-60
2022/02/14 00:27:59;;;;;;;3.85;0.98;;;;;;;7.85;79.36;97627.75;4983088;28;20042;-60
2022/02/14 00:30:25;;;;;;;4.38;2.53;;;;;;;7.82;79.30;97623.53;4986481;28;20558;-59
2022/02/14 00:32:52;;;;;;;3.33;1.40;;;;;;;7.82;79.60;97618.38;4987394;28;20101;-60
2022/02/14 00:35:19;;;;;;;3.63;1.30;;;;;;;7.78;80.73;97619.38;4987610;28;20042;-59
2022/02/14 00:37:46;;;;;;;3.30;1.83;;;;;;;7.80;79.20;97624.47;4982819;28;20051;-60
2022/02/14 00:40:12;;;;;;;4.60;3.03;;;;;;;7.77;79.47;97624.56;4985611;28;20054;-60
2022/02/14 00:42:39;;;;;;;3.97;2.85;;;;;;;7.77;80.89;97627.16;4985284;28;20093;-59
2022/02/14 00:45:06;;;;;;;3.10;2.05;;;;;;;7.76;80.65;97616.00;4983388;28;20517;-59
2022/02/14 00:47:33;;;;;;;4.07;1.27;;;;;;;7.74;80.25;97622.94;4983391;28;20474;-58
2022/02/14 00:49:59;;;;;;;2.58;0.98;;;;;;;7.72;79.68;97624.69;4984474;28;20046;-59
2022/02/14 00:52:27;;;;;;;4.55;1.20;;;;;;;7.71;79.59;97613.53;4990790;28;20104;-59
2022/02/14 00:54:58;;;;;;;3.13;2.10;;;;;;;7.70;80.38;97627.31;4989106;28;20054;-60
2022/02/14 00:57:27;;;;;;;3.53;1.25;;;;;;;7.69;79.72;97625.66;4990701;28;20058;-57
2022/02/14 00:59:53;;;;;;;4.35;1.20;;;;;;;7.66;80.56;97630.03;4988189;28;20042;-60
2022/02/14 01:02:20;;;;;;;3.63;2.30;;;;;;;7.62;80.32;97616.41;4985485;28;20962;-59
2022/02/14 01:04:46;;;;;;;1.98;1.00;;;;;;;7.60;79.90;97613.03;4989575;28;20557;-58
2022/02/14 01:07:13;;;;;;;4.32;2.65;;;;;;;7.60;79.37;97610.44;4985579;28;20105;-59
2022/02/14 01:09:42;;;;;;;3.65;2.65;;;;;;;7.59;80.17;97616.50;4984745;28;20055;-59
2022/02/14 01:12:09;;;;;;;6.88;1.52;;;;;;;7.59;80.50;97619.06;4991036;28;20479;-60
2022/02/14 01:14:35;;;;;;;2.53;1.15;;;;;;;7.57;80.45;97620.88;4987906;28;20054;-59
2022/02/14 01:17:03;;;;;;;3.35;1.40;;;;;;;7.57;79.92;97615.72;4987629;28;20112;-59
2022/02/14 01:19:31;;;;;;;3.13;1.40;;;;;;;7.55;79.69;97613.19;4987716;28;20521;-59
2022/02/14 01:22:00;;;;;;;6.68;1.98;;;;;;;7.55;79.95;97617.47;4989335;28;20046;-60
2022/02/14 01:24:29;;;;;;;3.85;1.80;;;;;;;7.55;80.73;97617.47;4986800;28;20042;-60
2022/02/14 01:26:57;;;;;;;6.18;3.75;;;;;;;7.53;80.88;97620.09;4987611;28;20066;-59
2022/02/14 01:29:25;;;;;;;7.63;3.92;;;;;;;7.51;80.75;97610.72;4985303;28;20105;-60
2022/02/14 01:31:55;;;;;;;3.47;1.52;;;;;;;7.50;80.09;97609.06;4984821;28;20047;-60
2022/02/14 01:34:23;;;;;;;4.15;1.75;;;;;;;7.49;80.82;97609.94;4986159;28;20038;-60
2022/02/14 01:36:50;;;;;;;4.22;2.65;;;;;;;7.45;80.94;97606.59;4987398;28;20054;-60
2022/02/14 01:39:17;;;;;;;4.10;2.20;;;;;;;7.43;80.49;97609.22;4987955;28;20046;-59
2022/02/14 01:41:43;;;;;;;5.03;3.00;;;;;;;7.43;80.55;97611.78;4989606;28;20047;-60
2022/02/14 01:44:11;;;;;;;4.00;3.03;;;;;;;7.43;80.45;97610.97;4983734;28;20042;-60
2022/02/14 01:46:39;;;;;;;4.43;3.13;;;;;;;7.38;80.96;97608.53;4984739;28;20097;-59
2022/02/14 01:49:06;;;;;;;3.95;2.45;;;;;;;7.39;79.93;97610.19;4989131;28;20465;-60
2022/02/14 01:51:33;;;;;;;3.58;1.30;;;;;;;7.36;80.66;97610.28;4991660;28;20101;-60
2022/02/14 01:54:01;;;;;;;3.40;1.23;;;;;;;7.36;80.90;97612.84;4991363;28;20050;-56
2022/02/14 01:56:27;;;;;;;3.72;2.72;;;;;;;7.33;80.66;97612.97;4985243;28;20050;-59
2022/02/14 01:58:54;;;;;;;3.17;2.40;;;;;;;7.29;79.51;97611.34;4990004;28;20050;-59
2022/02/14 02:01:20;;;;;;;3.65;1.20;;;;;;;7.29;80.31;97611.34;4984354;28;20050;-60
2022/02/14 02:03:48;;;;;;;3.97;2.17;;;;;;;7.28;80.11;97617.38;4985091;28;20434;-58
2022/02/14 02:06:15;;;;;;;3.60;1.10;;;;;;;7.27;79.09;97613.13;4986005;28;20054;-59
2022/02/14 02:08:41;;;;;;;1.77;0.88;;;;;;;7.27;80.21;97623.44;4984035;28;20059;-60
2022/02/14 02:13:54;;;;;;;2.60;0.93;;;;;;;7.23;79.34;97622.66;4984657;28;20691;-58
2022/02/14 02:16:21;;;;;;;1.95;1.25;;;;;;;7.18;79.93;97625.38;4985814;28;20450;-60
2022/02/14 02:18:47;;;;;;;3.67;2.42;;;;;;;7.20;80.76;97633.91;4985062;28;20096;-59
2022/02/14 02:21:14;;;;;;;2.35;0.70;;;;;;;7.19;80.53;97632.22;4986374;28;20054;-60
2022/02/14 02:23:41;;;;;;;2.97;2.63;;;;;;;7.16;80.33;97636.63;4984280;28;20070;-58
2022/02/14 02:26:08;;;;;;;1.25;0.70;;;;;;;7.16;80.36;97637.44;4986795;28;20101;-59
2022/02/14 02:28:35;;;;;;;2.22;0.93;;;;;;;7.13;79.98;97631.53;4986091;28;20086;-58
2022/02/14 02:31:04;;;;;;;1.90;0.70;;;;;;;7.11;79.29;97639.31;4985587;28;20050;-60
2022/02/14 02:33:32;;;;;;;4.47;2.45;;;;;;;7.10;79.85;97640.19;4985763;28;20038;-58
2022/02/14 02:35:59;;;;;;;3.53;1.25;;;;;;;7.09;80.18;97645.38;4985722;28;20113;-60
2022/02/14 02:38:26;;;;;;;2.03;0.70;;;;;;;7.06;79.37;97642.00;4981687;28;20545;-60
2022/02/14 02:40:53;;;;;;;2.60;0.80;;;;;;;7.05;80.04;97642.91;4988461;28;20050;-58
2022/02/14 02:43:19;;;;;;;2.83;0.70;;;;;;;7.04;78.99;97648.94;4982755;28;20085;-58
2022/02/14 02:45:46;;;;;;;1.98;0.70;;;;;;;7.03;79.73;97652.38;4983273;28;20447;-59
2022/02/14 02:48:13;;;;;;;2.38;0.75;;;;;;;7.02;79.12;97645.53;4987681;28;20380;-60
2022/02/14 02:51:01;;;;;;;1.27;0.80;;;;;;;7.00;80.58;97649.91;4986861;28;20046;-60
2022/02/14 02:53:27;;;;;;;2.60;1.85;;;;;;;6.99;79.57;97657.66;4985924;28;20046;-59
2022/02/14 02:55:54;;;;;;;1.92;1.77;;;;;;;6.96;79.78;97658.59;4987012;28;20059;-60
2022/02/14 02:58:21;;;;;;;1.30;0.77;;;;;;;6.97;79.65;97665.44;4985670;28;20105;-59
2022/02/14 03:00:48;;;;;;;3.50;1.88;;;;;;;6.97;79.97;97662.00;4985850;28;20050;-60
2022/02/14 03:03:15;;;;;;;0.98;0.50;;;;;;;6.94;79.45;97658.63;4981835;28;20050;-59
2022/02/14 03:05:42;;;;;;;2.17;2.08;;;;;;;6.91;79.37;97669.00;4990142;28;20475;-60
2022/02/14 03:08:08;;;;;;;1.85;1.75;;;;;;;6.90;79.39;97662.19;4986025;28;20109;-59
2022/02/14 03:10:35;;;;;;;1.88;1.77;;;;;;;6.90;80.10;97661.31;4986645;28;20108;-59
2022/02/14 03:13:02;;;;;;;1.20;0.30;;;;;;;6.90;79.23;97662.19;4984604;28;20073;-59
2022/02/14 03:15:28;;;;;;;1.17;0.40;;;;;;;6.89;80.16;97659.63;4986210;28;20062;-60
2022/02/14 03:17:58;;;;;;;1.48;0.50;;;;;;;6.89;78.97;97655.31;4986494;28;20038;-60
2022/02/14 03:20:25;;;;;;;3.28;3.08;;;;;;;6.88;79.92;97663.94;4983743;28;20069;-60
2022/02/14 03:22:51;;;;;;;1.25;0.47;;;;;;;6.87;79.15;97654.53;4986612;28;20766;-60
2022/02/14 03:25:18;;;;;;;2.60;0.40;;;;;;;6.84;79.08;97664.03;4985416;28;20062;-59
2022/02/14 03:27:45;;;;;;;0.50;0.30;;;;;;;6.83;78.36;97673.50;4986497;28;20046;-59
2022/02/14 03:30:11;;;;;;;2.10;0.43;;;;;;;6.80;78.92;97671.84;4983754;28;20135;-60
2022/02/14 03:32:38;;;;;;;0.70;0.30;;;;;;;6.79;79.12;97677.03;4986762;28;20065;-58
2022/02/14 03:35:05;;;;;;;1.10;0.40;;;;;;;6.75;79.64;97672.88;4984370;28;20105;-60
2022/02/14 03:37:32;;;;;;;1.88;0.77;;;;;;;6.74;79.88;97671.16;4985206;28;20047;-59
2022/02/14 03:39:58;;;;;;;0.80;0.50;;;;;;;6.74;79.02;97678.88;4984554;28;20081;-59
2022/02/14 03:42:25;;;;;;;1.02;0.47;;;;;;;6.74;80.05;97691.72;4982939;28;20132;-60
2022/02/14 03:44:52;;;;;;;2.13;2.03;;;;;;;6.73;79.65;97684.91;4985263;28;20105;-59
2022/02/14 03:47:18;;;;;;;0.98;0.40;;;;;;;6.71;79.20;97682.38;4986461;28;20042;-59
2022/02/14 03:49:45;;;;;;;2.17;2.08;;;;;;;6.66;79.15;97691.94;4983847;28;20545;-60
2022/02/14 03:52:11;;;;;;;2.85;1.98;;;;;;;6.65;79.53;97687.66;4987388;28;20059;-60
2022/02/14 03:54:38;;;;;;;2.40;1.55;;;;;;;6.65;78.36;97696.22;4984101;28;20142;-60
2022/02/14 03:57:04;;;;;;;1.20;0.40;;;;;;;6.64;78.49;97702.25;4986856;28;20078;-61
2022/02/14 03:59:31;;;;;;;1.77;1.67;;;;;;;6.65;78.12;97698.81;4983668;28;20050;-58
2022/02/14 04:01:59;;;;;;;1.08;0.70;;;;;;;6.64;78.07;97703.97;4982623;28;20081;-60
2022/02/14 04:04:26;;;;;;;2.85;1.90;;;;;;;6.62;79.09;97711.72;4985283;28;20050;-60
2022/02/14 04:06:52;;;;;;;3.95;0.85;;;;;;;6.60;78.49;97710.94;4981616;28;20105;-59
2022/02/14 04:09:19;;;;;;;1.45;1.15;;;;;;;6.60;79.75;97720.38;4986550;28;20085;-60
2022/02/14 04:11:45;;;;;;;1.20;0.63;;;;;;;6.58;78.52;97722.16;4982240;28;20046;-60
2022/02/14 04:14:12;;;;;;;3.22;1.88;;;;;;;6.56;78.43;97725.59;4984969;28;20495;-61
2022/02/14 04:16:38;;;;;;;1.15;0.50;;;;;;;6.56;79.02;97727.34;4985277;28;20376;-60
2022/02/14 04:19:05;;;;;;;1.85;1.70;;;;;;;6.53;78.32;97729.97;4983556;28;20100;-60
2022/02/14 04:21:34;;;;;;;4.03;2.50;;;;;;;6.52;78.51;97728.28;4977550;28;20054;-59
2022/02/14 04:24:01;;;;;;;3.47;1.70;;;;;;;6.50;78.32;97730.03;4980985;28;20073;-59
2022/02/14 04:26:28;;;;;;;1.33;1.23;;;;;;;6.48;78.20;97731.81;4982294;28;20050;-60
2022/02/14 04:28:54;;;;;;;1.70;1.60;;;;;;;6.41;78.62;97747.38;4984141;28;20041;-60
2022/02/14 04:31:21;;;;;;;1.50;1.40;;;;;;;6.42;78.14;97749.06;4988000;28;20111;-60
2022/02/14 04:33:47;;;;;;;1.98;1.77;;;;;;;6.40;77.81;97755.97;4985382;28;20054;-60
2022/02/14 04:36:14;;;;;;;3.33;2.33;;;;;;;6.37;78.13;97752.63;4981978;28;20092;-60
2022/02/14 04:38:40;;;;;;;2.05;1.48;;;;;;;6.36;77.96;97759.50;4985523;28;20046;-61
2022/02/14 04:41:07;;;;;;;2.13;1.98;;;;;;;6.31;78.02;97756.16;4982485;28;20050;-60
2022/02/14 04:43:33;;;;;;;1.98;1.77;;;;;;;6.28;78.73;97766.50;4981518;28;20062;-60
2022/02/14 04:46:00;;;;;;;2.38;2.13;;;;;;;6.24;78.51;97765.75;4984390;28;20058;-60
2022/02/14 04:48:28;;;;;;;1.38;1.27;;;;;;;6.22;78.50;97766.66;4987340;28;20062;-60
2022/02/14 04:50:55;;;;;;;2.70;1.40;;;;;;;6.16;77.90;97773.66;4980884;28;20046;-60
2022/02/14 04:53:21;;;;;;;1.27;0.35;;;;;;;6.15;78.20;97779.63;4980877;28;20062;-60
2022/02/14 04:55:48;;;;;;;1.80;1.70;;;;;;;6.11;78.58;97784.91;4984857;28;20050;-58
2022/02/14 04:58:15;;;;;;;4.05;1.52;;;;;;;6.09;78.31;97786.63;4984769;28;20050;-60
2022/02/14 05:00:41;;;;;;;1.95;1.65;;;;;;;6.07;77.95;97790.94;4984884;28;20120;-59
2022/02/14 05:03:08;;;;;;;1.50;1.40;;;;;;;6.04;78.22;97794.44;4983419;28;20104;-59
2022/02/14 05:05:35;;;;;;;0.77;0.28;;;;;;;6.03;78.67;97803.00;4983086;28;20047;-59
2022/02/14 05:08:01;;;;;;;1.55;1.45;;;;;;;6.02;78.14;97807.28;4983035;28;20082;-56
2022/02/14 05:10:28;;;;;;;2.78;1.48;;;;;;;5.97;78.55;97800.53;4983096;28;20066;-57
2022/02/14 05:12:55;;;;;;;1.48;1.38;;;;;;;5.97;77.57;97810.81;4982616;28;20051;-60
2022/02/14 05:15:21;;;;;;;1.70;1.60;;;;;;;5.98;78.46;97809.97;4983258;28;20038;-60
2022/02/14 05:17:48;;;;;;;6.65;2.00;;;;;;;5.97;78.77;97813.38;4983882;28;20042;-60
2022/02/14 05:20:14;;;;;;;1.15;0.38;;;;;;;5.96;78.23;97812.56;4981918;28;20469;-60
2022/02/14 05:22:41;;;;;;;2.25;1.65;;;;;;;5.98;78.59;97825.38;4984535;28;20046;-59
2022/02/14 05:25:08;;;;;;;3.33;1.48;;;;;;;5.97;78.34;97813.38;4983239;28;20046;-60
2022/02/14 05:27:35;;;;;;;1.58;0.68;;;;;;;5.95;78.38;97820.31;4981715;28;20434;-60
2022/02/14 05:30:04;;;;;;;1.77;1.67;;;;;;;5.96;78.18;97822.00;4984395;28;20319;-59
2022/02/14 05:32:30;;;;;;;1.95;1.70;;;;;;;5.94;78.12;97823.75;4984951;28;20510;-60
2022/02/14 05:34:57;;;;;;;2.00;0.40;;;;;;;5.94;78.08;97828.91;4982806;28;20042;-60
2022/02/14 05:37:24;;;;;;;1.73;1.63;;;;;;;5.96;78.56;97835.69;4986311;28;20054;-60
2022/02/14 05:39:51;;;;;;;1.98;1.88;;;;;;;5.94;78.37;97834.03;4988829;28;20054;-60
2022/02/14 05:42:17;;;;;;;1.83;1.73;;;;;;;5.95;77.48;97835.72;4985131;28;20097;-60
2022/02/14 05:44:44;;;;;;;2.67;1.38;;;;;;;5.92;77.61;97840.03;4987262;28;20561;-60
2022/02/14 05:47:13;;;;;;;1.35;1.13;;;;;;;5.91;78.38;97848.63;4988210;28;20145;-60
2022/02/14 05:49:40;;;;;;;1.42;1.33;;;;;;;5.87;78.03;97844.41;4989866;28;20058;-60
2022/02/14 05:52:08;;;;;;;1.63;1.45;;;;;;;5.85;77.66;97847.91;4987058;28;20055;-59
2022/02/14 05:54:35;;;;;;;1.38;1.27;;;;;;;5.85;77.35;97853.03;4988075;28;20199;-58
2022/02/14 05:57:02;;;;;;;2.78;1.50;;;;;;;5.86;77.42;97859.84;4983396;28;20105;-60
2022/02/14 05:59:29;;;;;;;1.98;0.40;;;;;;;5.83;77.83;97857.34;4990116;28;20383;-59
2022/02/14 06:01:55;;;;;;;3.63;1.80;;;;;;;5.81;78.05;97862.50;4983680;28;20047;-59
2022/02/14 06:04:22;;;;;;;1.73;0.70;;;;;;;5.82;78.04;97861.66;4988365;28;21833;-59
2022/02/14 06:06:49;;;;;;;1.80;1.70;;;;;;;5.82;77.89;97871.94;4987940;28;20490;-60
2022/02/14 06:09:15;;;;;;;2.70;1.55;;;;;;;5.77;77.61;97873.72;4986954;28;20073;-60
2022/02/14 06:11:42;;;;;;;1.77;1.67;;;;;;;5.73;77.33;97874.66;4986393;28;20054;-60
2022/02/14 06:14:09;;;;;;;0.90;0.50;;;;;;;5.66;77.15;97887.63;4987717;28;20375;-59
2022/02/14 06:16:35;;;;;;;2.80;1.85;;;;;;;5.61;77.81;97899.69;4986434;28;20096;-60
2022/02/14 06:19:02;;;;;;;1.38;0.22;;;;;;;5.58;77.80;97896.31;4987923;28;20919;-60
2022/02/14 06:21:28;;;;;;;1.95;1.63;;;;;;;5.53;77.04;97896.41;4984389;28;20054;-60
2022/02/14 06:23:55;;;;;;;3.50;1.73;;;;;;;5.49;77.16;97905.03;4988411;28;20109;-60
2022/02/14 06:26:22;;;;;;;1.20;1.10;;;;;;;5.44;76.79;97896.56;4983873;28;20826;-60
2022/02/14 06:28:48;;;;;;;2.28;1.52;;;;;;;5.40;77.42;97911.16;4987579;28;20108;-60
2022/02/14 06:31:15;;;;;;;2.78;1.85;;;;;;;5.35;77.40;97918.94;4986625;28;20050;-60
2022/02/14 06:33:42;;;;;;;1.30;1.15;;;;;;;5.29;77.67;97924.16;4985615;28;20050;-60
2022/02/14 06:36:08;;;;;;;2.10;1.92;;;;;;;5.28;77.27;97917.34;4981827;28;20046;-60
2022/02/14 06:38:35;;;;;;;1.65;1.55;;;;;;;5.23;76.95;97916.53;4986319;28;20104;-60
2022/02/14 06:41:02;;;;;;;1.67;1.58;;;;;;;5.20;77.37;97924.31;4988642;28;20046;-60
2022/02/14 06:43:28;;;;;;;1.48;1.38;;;;;;;5.18;76.96;97926.03;4983638;28;20129;-59
2022/02/14 06:45:55;;;;;;;2.47;1.77;;;;;;;5.14;77.54;97931.22;4983415;28;20054;-58
2022/02/14 06:48:21;;;;;;;1.98;1.77;;;;;;;5.14;76.88;97941.47;4982377;28;20050;-60
2022/02/14 06:50:48;;;;;;;1.50;1.40;;;;;;;5.18;77.35;97933.75;4981150;28;20062;-60
2022/02/14 06:53:15;;;;;;;3.35;1.58;;;;;;;5.24;77.89;97946.50;4987479;28;20703;-60
2022/02/14 06:55:41;;;;;;;1.73;1.63;;;;;;;5.26;76.81;97944.75;4982203;28;20182;-60
2022/02/14 06:58:08;;;;;;;1.48;1.38;;;;;;;5.27;77.10;97946.47;4988195;28;20101;-59
2022/02/14 07:00:35;;;;;;;3.70;1.45;;;;;;;5.30;77.68;97945.56;4987572;28;20108;-59
2022/02/14 07:03:01;;;;;;;1.40;1.30;;;;;;;5.29;77.51;97949.84;4986462;28;20137;-60
2022/02/14 07:05:28;;;;;;;1.70;1.52;;;;;;;5.31;76.74;97953.25;4985306;28;20128;-58
2022/02/14 07:07:54;;;;;;;2.65;1.40;;;;;;;5.34;77.27;97960.03;4982564;28;20050;-60
2022/02/14 07:10:21;;;;;;;2.55;0.40;;;;;;;5.35;77.07;97970.28;4987521;28;20058;-60
2022/02/14 07:12:48;;;;;;;1.90;1.80;;;;;;;5.37;76.74;97973.66;4982612;28;20059;-60
2022/02/14 07:15:14;;;;;;;2.55;1.85;;;;;;;5.39;77.23;97977.06;4986629;28;20050;-58
2022/02/14 07:17:44;;;;;;;1.52;1.40;;;;;;;5.40;76.82;97978.75;4984703;28;20108;-59
2022/02/14 07:20:10;;;;;;;1.85;1.27;;;;;;;5.40;77.06;97983.91;4986961;28;20129;-59
2022/02/14 07:22:37;;;;;;;0.77;0.30;;;;;;;5.42;77.14;97986.44;4982551;28;20521;-60
2022/02/14 07:25:04;;;;;;;1.67;1.52;;;;;;;5.42;76.54;97996.72;4979518;28;20051;-59
2022/02/14 07:27:34;;;;;;;1.58;0.40;;;;;;;5.41;76.14;97995.03;4981085;28;20771;-59
2022/02/14 07:30:04;;;;;;;1.33;1.23;;;;;;;5.40;76.15;97998.44;4987547;28;20046;-59
2022/02/14 07:32:31;;;;;;;1.88;0.28;;;;;;;5.41;77.16;97995.03;4986662;28;20395;-58
2022/02/14 07:34:58;;;;;;;1.40;1.30;;;;;;;5.42;76.67;98006.97;4985447;28;20467;-60
2022/02/14 07:37:25;;;;;;;2.25;1.08;;;;;;;5.44;76.69;98009.53;4985252;28;20479;-60
2022/02/14 07:39:52;;;;;;;1.83;1.33;;;;;;;5.45;77.23;98009.50;4987190;28;20128;-59
2022/02/14 07:42:19;;;;;;;1.90;1.63;;;;;;;5.45;76.64;98003.53;4988222;28;20042;-59
2022/02/14 07:44:46;;;;;;;1.30;1.20;;;;;;;5.43;77.22;98023.25;4985243;28;20097;-60
2022/02/14 07:47:13;;;;;;;1.88;1.35;;;;;;;5.44;76.77;98024.94;4986042;28;20728;-60
2022/02/14 07:49:40;;;;;;;2.38;0.25;;;;;;;5.45;75.92;98021.50;4988627;28;20093;-60
2022/02/14 07:52:08;;;;;;;0.77;0.50;;;;;;;5.44;76.33;98022.38;4983770;28;20490;-60
2022/02/14 07:54:34;;;;;;;2.90;2.03;;;;;;;5.49;76.49;98033.41;4988348;28;20050;-58
2022/02/14 07:57:06;;;;;;;1.60;1.40;;;;;;;5.49;76.74;98030.84;4984466;28;20053;-59
2022/02/14 07:59:33;;;;;;;1.52;1.40;;;;;;;5.53;75.80;98035.06;4986462;28;20069;-59
2022/02/14 08:01:59;;;;;;;1.67;1.58;;;;;;;5.57;76.66;98025.63;4985042;28;20046;-59
2022/02/14 08:04:26;;;;;;;1.75;1.45;;;;;;;5.58;75.69;98032.44;4988994;28;20054;-60
2022/02/14 08:06:53;;;;;;;3.65;1.25;;;;;;;5.58;76.12;98030.72;4987248;28;20104;-58
2022/02/14 08:09:19;;;;;;;1.15;1.15;;;;;;;5.71;75.54;98036.50;4986140;28;20054;-57
2022/02/14 08:11:46;;;;;;;2.45;1.40;;;;;;;6.01;76.00;98036.88;4982263;28;20046;-60
2022/02/14 08:14:14;;;;;;;2.05;1.95;;;;;;;6.19;76.30;98041.78;4980595;28;20042;-59
2022/02/14 08:16:41;;;;;;;1.92;1.30;;;;;;;6.20;75.62;98046.91;4982770;28;20050;-59
2022/02/14 08:19:07;;;;;;;1.60;1.50;;;;;;;6.19;75.16;98049.50;4981626;28;20085;-59
2022/02/14 08:21:34;;;;;;;2.28;1.67;;;;;;;6.14;74.33;98041.84;4982417;28;20046;-60
2022/02/14 08:24:02;;;;;;;2.13;2.03;;;;;;;6.12;74.35;98053.91;4976783;28;20054;-60
2022/02/14 08:26:29;;;;;;;6.38;3.25;;;;;;;6.12;75.16;98054.72;4980460;28;20043;-60
2022/02/14 08:28:56;;;;;;;3.30;2.55;;;;;;;6.08;74.88;98058.22;4976013;28;20050;-60
2022/02/14 08:31:22;;;;;;;2.38;1.58;;;;;;;6.09;74.40;98056.50;4978694;28;20116;-60
2022/02/14 08:33:49;;;;;;;6.40;4.25;;;;;;;6.07;73.94;98071.94;4981233;28;20057;-60
2022/02/14 08:36:15;;;;;;;2.38;1.85;;;;;;;6.09;73.82;98049.66;4978633;28;20097;-59
2022/02/14 08:38:42;;;;;;;11.73;3.65;;;;;;;6.24;73.94;98065.66;4979447;28;20050;-60
2022/02/14 08:41:09;;;;;;;13.25;3.95;;;;;;;6.34;73.25;98056.94;4975777;28;20524;-59
2022/02/14 08:43:35;;;;;;;13.30;4.88;;;;;;;6.41;74.95;98066.25;4979786;28;20482;-60
2022/02/14 08:46:05;;;;;;;9.50;2.88;;;;;;;6.49;73.32;98065.25;4979989;28;21304;-58
2022/02/14 08:48:32;;;;;;;2.75;1.85;;;;;;;7.05;74.28;98077.06;4980295;28;20054;-59
2022/02/14 08:50:59;;;;;;;7.55;1.55;;;;;;;8.10;73.38;98073.03;4979420;28;20061;-60
2022/02/14 08:53:31;;;;;;;2.53;1.88;;;;;;;9.34;73.77;98083.56;4981737;28;20042;-60
2022/02/14 08:55:59;;;;;;;2.95;1.63;;;;;;;10.17;70.92;98084.50;4979859;28;20043;-60
2022/02/14 08:58:28;;;;;;;2.72;1.20;;;;;;;11.00;69.89;98095.50;4980842;28;20387;-59
2022/02/14 09:00:55;;;;;;;3.67;0.50;;;;;;;11.73;69.49;98104.94;4981962;28;20054;-60
2022/02/14 09:03:22;;;;;;;5.68;2.78;;;;;;;12.31;66.34;98100.09;4984426;28;20051;-59
2022/02/14 09:05:49;;;;;;;3.20;1.00;;;;;;;13.13;64.47;98108.75;4975767;28;20034;-60
2022/02/14 09:08:15;;;;;;;3.00;1.13;;;;;;;13.64;61.15;98107.41;4978973;28;20138;-60
2022/02/14 09:10:42;;;;;;;2.17;0.98;;;;;;;13.51;61.36;98107.94;4979452;28;20046;-60
2022/02/14 09:13:09;;;;;;;1.73;0.70;;;;;;;13.29;61.54;98116.72;4984158;28;20065;-59
2022/02/14 09:15:35;;;;;;;4.32;1.60;;;;;;;13.45;61.24;98113.41;4991485;28;20050;-60
2022/02/14 09:18:02;;;;;;;1.55;0.60;;;;;;;13.87;60.19;98116.72;4989221;28;20553;-57
2022/02/14 09:20:29;;;;;;;1.33;0.63;;;;;;;14.52;60.32;98117.94;4986016;28;20730;-59
2022/02/14 09:22:56;;;;;;;1.38;0.68;;;;;;;15.07;57.74;98125.66;4989743;28;20104;-60
2022/02/14 09:25:23;;;;;;;2.03;1.02;;;;;;;15.53;57.11;98124.97;4985601;28;20160;-60
2022/02/14 09:27:50;;;;;;;2.20;0.85;;;;;;;15.94;56.23;98131.44;4985936;28;20050;-59
2022/02/14 09:30:17;;;;;;;1.15;0.70;;;;;;;16.50;55.88;98138.78;4987221;28;20061;-59
2022/02/14 09:32:44;;;;;;;2.38;0.77;;;;;;;16.78;54.47;98136.31;4991173;28;20051;-60
2022/02/14 09:35:11;;;;;;;1.13;0.73;;;;;;;16.59;54.12;98142.66;4990619;28;20046;-60
2022/02/14 09:37:38;;;;;;;1.30;0.57;;;;;;;16.41;53.22;98149.75;4990105;28;20050;-60
2022/02/14 09:40:05;;;;;;;2.67;0.30;;;;;;;15.74;53.96;98141.22;4987323;28;20054;-61
2022/02/14 09:42:54;;;;;;;2.78;2.55;;;;;;;14.84;53.69;98144.16;4986835;28;21677;-61
2022/02/14 09:45:23;;;;;;;0.60;0.40;;;;;;;14.07;54.96;98147.00;4984100;28;20145;-59
2022/02/14 09:47:55;;;;;;;12.18;3.50;;;;;;;13.33;53.32;98151.19;4980784;28;20495;-61
2022/02/14 09:50:22;;;;;;;11.68;3.50;;;;;;;12.81;56.07;98153.44;4986853;28;20050;-61
2022/02/14 09:52:49;;;;;;;12.32;3.38;;;;;;;12.68;57.93;98160.03;4988499;28;20047;-59
2022/02/14 09:55:16;;;;;;;14.07;3.45;;;;;;;12.43;56.55;98155.88;4980946;28;20042;-61
2022/02/14 09:57:43;;;;;;;8.30;2.40;;;;;;;12.04;57.65;98149.56;4983793;28;20050;-60
2022/02/14 10:00:11;;;;;;;8.00;2.58;;;;;;;11.49;57.16;98161.16;4984550;28;20371;-60
2022/02/14 10:02:38;;;;;;;15.80;5.03;;;;;;;11.23;59.11;98168.97;4987012;28;20145;-59
2022/02/14 10:05:09;;;;;;;10.95;3.42;;;;;;;10.88;58.62;98163.28;4984561;28;20042;-60
2022/02/14 10:07:39;;;;;;;7.55;2.28;;;;;;;10.67;60.49;98168.28;4989207;28;20112;-59
2022/02/14 10:10:17;;;;;;;9.25;2.70;;;;;;;10.47;60.72;98169.78;4985607;28;20701;-59
2022/02/14 10:12:47;;;;;;;6.47;2.33;;;;;;;10.28;60.93;98175.53;4985375;28;20046;-60
2022/02/14 10:15:16;;;;;;;4.82;1.63;;;;;;;10.15;61.94;98180.25;4991530;28;20093;-59
2022/02/14 10:17:45;;;;;;;5.93;1.33;;;;;;;9.94;61.90;98186.94;4983172;28;20042;-59
2022/02/14 10:20:15;;;;;;;2.70;0.90;;;;;;;9.67;61.85;98186.84;4988498;28;20042;-60
2022/02/14 10:23:02;;;;;;;1.58;0.60;;;;;;;9.36;62.10;98185.16;4985714;28;20043;-59
2022/02/14 10:25:34;;;;;;;0.95;0.73;;;;;;;9.28;63.13;98192.25;4985354;28;20049;-59
2022/02/14 10:28:21;;;;;;;1.40;0.70;;;;;;;9.17;63.28;98190.81;4989397;28;20046;-59
2022/02/14 10:31:06;;;;;;;1.17;0.65;;;;;;;9.11;63.96;98201.28;4988127;28;20490;-58
2022/02/14 10:33:54;;;;;;;0.77;0.35;;;;;;;9.07;64.79;98204.84;4985658;28;21625;-59
2022/02/14 10:36:29;;;;;;;0.55;0.20;;;;;;;9.00;64.51;98202.44;4982997;28;20042;-59
2022/02/14 10:38:58;;;;;;;0.60;0.20;;;;;;;8.83;65.44;98205.44;4988536;28;20042;-59
2022/02/14 10:41:27;;;;;;;10.02;2.10;;;;;;;8.74;65.19;98216.00;4983928;28;20050;-59
2022/02/14 10:44:07;;;;;;;4.90;2.20;;;;;;;8.66;65.82;98216.19;4984726;28;20613;-59
2022/02/14 10:46:34;;;;;;;2.28;0.65;;;;;;;8.59;66.20;98217.22;4989032;28;20042;-59
2022/02/14 10:49:02;;;;;;;4.28;0.85;;;;;;;8.46;66.35;98214.91;4986732;28;20054;-58
2022/02/14 10:51:53;;;;;;;3.80;1.00;;;;;;;8.36;65.93;98224.59;4982483;28;20046;-59
2022/02/14 10:54:19;;;;;;;5.45;1.00;;;;;;;8.29;66.35;98237.66;4985407;28;20066;-59
2022/02/14 10:56:47;;;;;;;1.45;0.40;;;;;;;8.28;66.83;98236.81;4989609;28;20061;-59
2022/02/14 10:59:17;;;;;;;1.23;0.70;;;;;;;8.22;66.77;98237.81;4988380;28;20485;-59
2022/02/14 11:01:44;;;;;;;1.23;0.40;;;;;;;8.19;67.08;98237.03;4986824;28;20494;-60
2022/02/14 11:04:10;;;;;;;3.75;1.02;;;;;;;8.07;67.58;98233.81;4989783;28;20054;-60
2022/02/14 11:06:37;;;;;;;2.38;0.68;;;;;;;7.98;67.17;98245.19;4981098;28;20530;-59
2022/02/14 11:09:05;;;;;;;2.75;0.75;;;;;;;8.04;67.17;98253.69;4990110;28;20054;-60
2022/02/14 11:11:35;;;;;;;3.78;1.10;;;;;;;8.18;68.33;98246.47;4984443;28;20050;-59
2022/02/14 11:14:03;;;;;;;1.65;0.40;;;;;;;8.36;67.97;98255.56;4985156;28;20813;-60
2022/02/14 11:16:34;;;;;;;1.98;0.50;;;;;;;8.54;67.06;98250.03;4989145;28;20046;-59
2022/02/14 11:19:02;;;;;;;4.43;1.13;;;;;;;8.73;67.27;98248.72;4985388;28;20098;-59
2022/02/14 11:21:32;;;;;;;1.60;0.60;;;;;;;8.91;67.66;98254.31;4983250;28;20051;-60
2022/02/14 11:24:02;;;;;;;;;;;;;;;8.86;66.16;98253.56;4989281;28;20042;-59
2022/02/14 11:26:43;;;;;;;0.82;0.63;;;;;;;8.91;65.91;98250.88;4988001;28;19997;-59
2022/02/14 11:29:26;;;;;;;5.60;1.58;;;;;;;8.84;66.47;98251.03;4980027;28;20050;-60
2022/02/14 11:32:14;;;;;;;3.40;0.80;;;;;;;8.70;66.47;98253.94;4987976;28;20046;-60
2022/02/14 11:35:06;;;;;;;9.70;2.60;;;;;;;8.58;67.03;98251.66;4977951;28;20498;-58
2022/02/14 11:37:54;;;;;;;10.35;2.63;;;;;;;8.53;66.79;98251.75;4979570;28;20046;-59
2022/02/14 11:40:39;;;;;;;7.97;2.47;;;;;;;8.47;67.67;98244.97;4980937;28;20629;-60
2022/02/14 11:43:22;;;;;;;5.03;1.55;;;;;;;8.38;67.37;98246.94;4981749;28;20129;-59
2022/02/14 11:46:15;;;;;;;6.78;1.75;;;;;;;8.32;67.72;98243.63;4984919;28;20133;-60
2022/02/14 11:48:41;;;;;;;3.42;1.58;;;;;;;8.31;68.03;98251.38;4977035;28;20055;-60